Time;durP1;ratioP1;P1;durP2;ratioP2;P2;SDS_P1;SDS_P2;PMS_P1;PMS_P2;Temp;Humidity;BMP_temperature;BMP_pressure;BME280_temperature;BME280_humidity;BME280_pressure;Samples;Min_cycle;Max_cycle;Signal;HPM_P1;HPM_P2
2023/10/14 00:02:24;;;;;;;4.28;0.70;;;13.10;99.90;;;;;;5018304;28;20071;-76
2023/10/14 00:04:53;;;;;;;2.75;0.90;;;13.10;99.90;;;;;;5070412;28;20062;-76
2023/10/14 00:07:25;;;;;;;4.80;1.10;;;12.90;99.90;;;;;;5061411;28;20037;-76
2023/10/14 00:09:51;;;;;;;2.90;0.90;;;12.90;99.90;;;;;;5064607;28;20059;-76
2023/10/14 00:12:17;;;;;;;3.30;0.82;;;12.90;99.90;;;;;;5056174;28;20086;-76
2023/10/14 00:14:46;;;;;;;3.25;0.90;;;12.90;99.90;;;;;;5050246;28;20040;-76
2023/10/14 00:17:18;;;;;;;2.05;0.68;;;12.80;99.90;;;;;;5051295;28;20056;-76
2023/10/14 00:19:50;;;;;;;2.92;0.88;;;12.80;99.90;;;;;;5059187;28;20083;-76
2023/10/14 00:22:19;;;;;;;3.22;0.90;;;12.80;99.90;;;;;;5052571;28;20056;-76
2023/10/14 00:24:48;;;;;;;3.00;0.68;;;12.80;99.90;;;;;;5061643;28;20048;-76
2023/10/14 00:27:14;;;;;;;3.33;1.10;;;12.70;99.90;;;;;;5060659;28;20094;-76
2023/10/14 00:29:41;;;;;;;1.55;0.73;;;12.80;99.90;;;;;;5042612;28;20385;-76
2023/10/14 00:32:07;;;;;;;4.25;0.98;;;12.70;99.90;;;;;;5060766;28;20055;-76
2023/10/14 00:34:33;;;;;;;3.30;0.88;;;12.60;99.90;;;;;;5050033;28;20036;-76
2023/10/14 00:36:58;;;;;;;5.75;1.35;;;12.50;99.90;;;;;;5068860;28;20049;-76
2023/10/14 00:39:28;;;;;;;6.65;0.95;;;12.50;99.90;;;;;;5053153;28;20047;-76
2023/10/14 00:41:55;;;;;;;3.00;0.80;;;12.50;99.90;;;;;;5064916;28;20491;-76
2023/10/14 00:44:26;;;;;;;3.35;0.90;;;12.40;99.90;;;;;;5066344;28;20083;-76
2023/10/14 00:46:53;;;;;;;4.38;1.13;;;12.40;99.90;;;;;;5065330;28;20083;-76
2023/10/14 00:49:35;;;;;;;1.80;0.95;;;12.30;99.90;;;;;;5050125;28;20045;-77
2023/10/14 00:52:18;;;;;;;3.50;1.05;;;12.20;99.90;;;;;;5057825;28;20048;-77
2023/10/14 00:57:20;;;;;;;3.75;1.10;;;12.10;99.90;;;;;;5066456;28;20044;-77
2023/10/14 00:59:47;;;;;;;3.22;1.00;;;12.10;99.90;;;;;;5037398;28;20381;-77
2023/10/14 01:02:14;;;;;;;3.97;1.00;;;12.10;99.90;;;;;;5066042;28;20047;-77
2023/10/14 01:04:53;;;;;;;5.45;1.23;;;12.00;99.90;;;;;;5044949;28;20526;-77
2023/10/14 01:07:21;;;;;;;5.15;1.10;;;11.90;99.90;;;;;;5058002;28;20044;-77
2023/10/14 01:12:17;;;;;;;1.85;0.63;;;11.80;99.90;;;;;;5069752;28;20143;-77
2023/10/14 01:14:52;;;;;;;3.20;0.90;;;11.80;99.90;;;;;;5048335;28;20041;-76
2023/10/14 01:19:52;;;;;;;2.53;0.77;;;11.70;99.90;;;;;;5064317;28;20348;-76
2023/10/14 01:22:17;;;;;;;;;;;11.70;99.90;;;;;;5065264;28;20080;-76
2023/10/14 01:24:43;;;;;;;3.20;1.00;;;11.60;99.90;;;;;;5056408;28;19967;-76
2023/10/14 01:27:11;;;;;;;2.65;0.68;;;11.50;99.90;;;;;;5046359;28;20045;-76
2023/10/14 01:29:41;;;;;;;2.90;0.80;;;11.50;99.90;;;;;;5063878;28;20496;-76
2023/10/14 01:35:19;;;;;;;2.60;0.73;;;11.30;99.90;;;;;;5043294;28;20041;-76
2023/10/14 01:37:45;;;;;;;1.45;0.70;;;11.30;99.90;;;;;;5066039;28;20044;-76
2023/10/14 01:40:24;;;;;;;3.63;0.85;;;11.20;99.90;;;;;;5041257;28;20045;-76
2023/10/14 01:42:56;;;;;;;2.05;0.80;;;11.20;99.90;;;;;;5059992;28;20484;-80
2023/10/14 01:45:23;;;;;;;2.67;0.85;;;11.10;99.90;;;;;;5035365;28;20496;-80
2023/10/14 01:48:11;;;;;;;3.05;0.95;;;11.10;99.90;;;;;;5069274;28;20056;-80
2023/10/14 01:50:37;;;;;;;3.17;0.93;;;11.00;99.90;;;;;;5063317;28;20045;-79
2023/10/14 01:53:11;;;;;;;2.97;0.88;;;11.00;99.90;;;;;;5050430;28;20037;-81
2023/10/14 01:55:43;;;;;;;4.25;0.95;;;10.90;99.90;;;;;;5038039;28;20041;-80
2023/10/14 01:58:22;;;;;;;4.53;0.80;;;10.90;99.90;;;;;;5055588;28;20033;-80
2023/10/14 02:00:58;;;;;;;1.80;0.68;;;10.80;99.90;;;;;;5040542;28;20056;-80
2023/10/14 02:03:24;;;;;;;2.07;0.60;;;10.80;99.90;;;;;;5060082;28;20076;-79
2023/10/14 02:05:53;;;;;;;3.28;0.82;;;10.80;99.90;;;;;;5051009;28;20309;-79
2023/10/14 02:08:22;;;;;;;1.80;0.70;;;10.70;99.90;;;;;;5055870;28;20033;-79
2023/10/14 02:10:51;;;;;;;5.35;1.00;;;10.70;99.90;;;;;;5035191;28;20084;-79
2023/10/14 02:13:19;;;;;;;3.90;1.00;;;10.70;99.90;;;;;;5045894;28;20044;-80
2023/10/14 02:15:46;;;;;;;3.67;0.82;;;10.70;99.90;;;;;;5038250;28;20373;-79
2023/10/14 02:18:20;;;;;;;2.67;0.80;;;10.60;99.90;;;;;;5050085;28;20105;-79
2023/10/14 02:20:57;;;;;;;2.58;0.70;;;10.60;99.90;;;;;;5039556;28;20094;-80
2023/10/14 02:23:28;;;;;;;2.15;0.75;;;10.60;99.90;;;;;;5054434;28;20041;-79
2023/10/14 02:25:58;;;;;;;4.07;0.90;;;10.60;99.90;;;;;;5057771;28;20044;-79
2023/10/14 02:28:29;;;;;;;2.50;0.88;;;10.50;99.90;;;;;;5071912;28;20044;-79
2023/10/14 02:30:59;;;;;;;2.55;0.77;;;10.50;99.90;;;;;;5068546;28;20091;-79
2023/10/14 02:33:25;;;;;;;1.52;0.82;;;10.50;99.90;;;;;;5058065;28;20106;-79
2023/10/14 02:35:52;;;;;;;2.95;0.60;;;10.50;99.90;;;;;;5036220;28;20048;-78
2023/10/14 02:38:18;;;;;;;2.97;0.77;;;10.40;99.90;;;;;;5044465;28;20116;-79
2023/10/14 02:40:44;;;;;;;2.95;0.80;;;10.40;99.90;;;;;;5052099;28;20124;-80
2023/10/14 02:43:16;;;;;;;3.13;0.80;;;10.40;99.90;;;;;;5066583;28;20048;-79
2023/10/14 02:45:45;;;;;;;3.83;1.13;;;10.40;99.90;;;;;;5035923;28;20056;-79
2023/10/14 02:48:11;;;;;;;3.72;1.05;;;10.40;99.90;;;;;;5053843;28;20045;-79
2023/10/14 02:50:37;;;;;;;4.13;0.88;;;10.40;99.90;;;;;;5063678;28;20052;-79
2023/10/14 02:53:21;;;;;;;2.35;0.88;;;10.40;99.90;;;;;;5038200;28;20055;-80
2023/10/14 02:55:57;;;;;;;5.88;0.95;;;10.40;99.90;;;;;;5058337;28;20044;-80
2023/10/14 02:58:23;;;;;;;5.65;1.10;;;10.50;99.90;;;;;;5042173;28;20436;-78
2023/10/14 03:00:58;;;;;;;4.65;0.90;;;10.50;99.90;;;;;;5053769;28;20139;-80
2023/10/14 03:03:24;;;;;;;4.15;1.00;;;10.50;99.90;;;;;;5062604;28;20049;-79
2023/10/14 03:05:53;;;;;;;2.15;0.70;;;10.50;99.90;;;;;;5036516;28;20051;-79
2023/10/14 03:08:20;;;;;;;2.90;0.98;;;10.50;99.90;;;;;;5046205;28;20177;-79
2023/10/14 03:10:54;;;;;;;4.88;0.70;;;10.50;99.90;;;;;;5064024;28;20089;-80
2023/10/14 03:13:19;;;;;;;1.80;0.60;;;10.50;99.90;;;;;;5056784;28;20041;-80
2023/10/14 03:15:52;;;;;;;1.88;0.50;;;10.40;99.90;;;;;;5064619;28;20640;-80
2023/10/14 03:18:19;;;;;;;4.50;0.70;;;10.40;99.90;;;;;;5059320;28;20041;-79
2023/10/14 03:21:08;;;;;;;3.13;0.80;;;10.40;99.90;;;;;;5051307;28;20400;-80
2023/10/14 03:23:35;;;;;;;2.13;0.52;;;10.40;99.90;;;;;;5042511;28;20041;-80
2023/10/14 03:26:11;;;;;;;2.22;1.00;;;10.40;99.90;;;;;;5058504;28;20055;-79
2023/10/14 03:28:38;;;;;;;;;;;10.40;99.90;;;;;;5064471;28;20040;-79
2023/10/14 03:31:07;;;;;;;2.40;0.60;;;10.30;99.90;;;;;;5071304;28;19920;-79
2023/10/14 03:33:42;;;;;;;2.85;1.20;;;10.30;99.90;;;;;;5065662;28;20049;-80
2023/10/14 03:36:09;;;;;;;2.70;0.70;;;10.30;99.90;;;;;;5063345;28;20377;-80
2023/10/14 03:41:21;;;;;;;2.03;0.55;;;10.30;99.90;;;;;;5053555;28;20440;-79
2023/10/14 03:43:54;;;;;;;2.45;1.10;;;10.30;99.90;;;;;;5060943;28;20049;-79
2023/10/14 03:46:24;;;;;;;3.03;0.73;;;10.30;99.90;;;;;;5047093;28;20068;-79
2023/10/14 03:48:54;;;;;;;4.38;0.80;;;10.30;99.90;;;;;;5057239;28;20124;-79
2023/10/14 03:51:24;;;;;;;4.53;1.00;;;10.30;99.90;;;;;;5067986;28;20178;-79
2023/10/14 03:53:54;;;;;;;2.25;0.70;;;10.40;99.90;;;;;;5057643;28;20044;-79
2023/10/14 03:56:27;;;;;;;2.05;0.80;;;10.40;99.90;;;;;;5069838;28;20052;-79
2023/10/14 03:58:59;;;;;;;6.05;0.85;;;10.30;99.90;;;;;;5065735;28;20045;-80
2023/10/14 04:01:44;;;;;;;4.75;0.75;;;10.40;99.90;;;;;;5079206;28;20112;-79
2023/10/14 04:04:24;;;;;;;4.70;1.10;;;10.40;99.90;;;;;;5057989;28;20044;-79
2023/10/14 04:12:32;;;;;;;4.68;0.90;;;10.60;99.90;;;;;;5054001;28;20067;-78
2023/10/14 04:15:06;;;;;;;2.13;0.65;;;10.60;99.90;;;;;;5051570;28;20036;-79
2023/10/14 04:17:32;;;;;;;6.43;1.10;;;10.70;99.90;;;;;;5058382;28;20063;-79
2023/10/14 04:20:14;;;;;;;;;;;10.70;99.90;;;;;;5033913;28;20102;-79
2023/10/14 04:22:40;;;;;;;5.60;1.10;;;10.70;99.90;;;;;;5050199;28;19947;-79
2023/10/14 04:27:45;;;;;;;2.38;0.60;;;10.70;99.90;;;;;;5056661;28;20067;-79
2023/10/14 04:30:20;;;;;;;5.57;1.00;;;10.70;99.90;;;;;;5050792;28;20079;-78
2023/10/14 04:33:04;;;;;;;5.20;1.02;;;10.70;99.90;;;;;;5050281;28;20091;-79
2023/10/14 04:35:32;;;;;;;3.17;0.70;;;10.80;99.90;;;;;;5059321;28;20118;-79
2023/10/14 04:38:13;;;;;;;1.83;0.50;;;10.70;99.90;;;;;;5049816;28;20098;-78
2023/10/14 04:40:39;;;;;;;1.75;0.68;;;10.70;99.90;;;;;;5046306;28;20071;-79
2023/10/14 04:45:52;;;;;;;;;;;10.70;99.90;;;;;;5050337;28;20088;-79
2023/10/14 04:48:29;;;;;;;3.38;0.85;;;10.70;99.90;;;;;;5058748;28;19966;-79
2023/10/14 04:51:15;;;;;;;3.33;0.95;;;10.60;99.90;;;;;;5048554;28;20041;-79
2023/10/14 04:53:46;;;;;;;3.85;1.30;;;10.60;99.90;;;;;;5057512;28;20076;-79
2023/10/14 04:56:21;;;;;;;3.35;0.90;;;10.60;99.90;;;;;;5062372;28;20181;-79
2023/10/14 04:58:47;;;;;;;3.70;0.93;;;10.60;99.90;;;;;;5066263;28;20366;-79
2023/10/14 05:01:18;;;;;;;;;;;10.50;99.90;;;;;;5024351;28;20040;-79
2023/10/14 05:03:44;;;;;;;3.88;0.98;;;10.50;99.90;;;;;;5058458;28;19921;-79
2023/10/14 05:08:45;;;;;;;3.53;0.75;;;10.40;99.90;;;;;;5066604;28;20010;-79
2023/10/14 05:11:15;;;;;;;4.32;1.15;;;10.40;99.90;;;;;;5066685;28;20705;-79
2023/10/14 05:13:44;;;;;;;5.68;1.00;;;10.40;99.90;;;;;;5041223;28;20107;-78
2023/10/14 05:16:20;;;;;;;5.82;1.10;;;10.30;99.90;;;;;;5040306;28;20037;-78
2023/10/14 05:19:01;;;;;;;4.38;0.77;;;10.30;99.90;;;;;;5067685;28;20518;-79
2023/10/14 05:21:42;;;;;;;3.47;0.80;;;10.30;99.90;;;;;;5059283;28;20190;-78
2023/10/14 05:24:10;;;;;;;3.58;0.85;;;10.20;99.90;;;;;;5047546;28;20044;-78
2023/10/14 05:26:44;;;;;;;4.85;1.45;;;10.20;99.90;;;;;;5036453;28;20055;-78
2023/10/14 05:29:19;;;;;;;3.70;1.08;;;10.20;99.90;;;;;;5055275;28;20392;-78
2023/10/14 05:31:48;;;;;;;5.45;1.10;;;10.20;99.90;;;;;;5034241;28;20193;-80
2023/10/14 05:34:16;;;;;;;7.47;1.50;;;10.20;99.90;;;;;;5061286;28;20037;-79
2023/10/14 05:36:41;;;;;;;7.72;1.40;;;10.30;99.90;;;;;;5053532;28;20060;-79
2023/10/14 05:39:10;;;;;;;8.25;1.92;;;10.40;99.90;;;;;;5050197;28;20411;-79
2023/10/14 05:41:38;;;;;;;4.70;1.70;;;10.50;99.90;;;;;;5036705;28;20048;-78
2023/10/14 05:44:10;;;;;;;4.03;1.00;;;10.60;99.90;;;;;;5039380;28;20120;-77
2023/10/14 05:46:36;;;;;;;3.15;0.85;;;10.60;99.90;;;;;;5058722;28;20511;-78
2023/10/14 05:49:04;;;;;;;5.45;1.38;;;10.50;99.90;;;;;;5062548;28;20037;-76
2023/10/14 05:51:30;;;;;;;3.47;0.95;;;10.50;99.90;;;;;;5036014;28;20487;-77
2023/10/14 05:53:57;;;;;;;4.35;1.00;;;10.50;99.90;;;;;;5061102;28;20058;-77
2023/10/14 05:56:22;;;;;;;;;;;10.50;99.90;;;;;;5036007;28;20530;-77
2023/10/14 05:58:48;;;;;;;4.20;1.23;;;10.50;99.90;;;;;;5049214;28;19916;-78
2023/10/14 06:01:19;;;;;;;4.07;0.90;;;10.40;99.90;;;;;;5072941;28;20487;-79
2023/10/14 06:03:45;;;;;;;5.03;1.20;;;10.40;99.90;;;;;;5046707;28;20487;-79
2023/10/14 06:06:14;;;;;;;1.85;0.65;;;10.40;99.90;;;;;;5072510;28;20102;-78
2023/10/14 06:08:41;;;;;;;2.67;0.70;;;10.30;99.90;;;;;;5067397;28;20040;-81
2023/10/14 06:11:07;;;;;;;4.32;0.88;;;10.30;99.90;;;;;;5030753;28;20477;-78
2023/10/14 06:13:33;;;;;;;;;;;10.30;99.90;;;;;;5059036;28;20053;-77
2023/10/14 06:16:04;;;;;;;5.85;0.82;;;10.20;99.90;;;;;;5068088;28;20367;-76
2023/10/14 06:18:33;;;;;;;1.52;0.60;;;10.20;99.90;;;;;;5067557;28;20157;-78
2023/10/14 06:20:59;;;;;;;2.83;0.77;;;10.20;99.90;;;;;;5060460;28;20048;-77
2023/10/14 06:23:29;;;;;;;2.85;0.75;;;10.20;99.90;;;;;;5055234;28;20044;-76
2023/10/14 06:25:55;;;;;;;4.15;1.15;;;10.20;99.90;;;;;;5061769;28;20040;-78
2023/10/14 06:28:21;;;;;;;3.40;0.80;;;10.20;99.90;;;;;;5070364;28;20041;-77
2023/10/14 06:30:47;;;;;;;;;;;10.20;99.90;;;;;;5065905;28;20357;-77
2023/10/14 06:33:13;;;;;;;3.50;0.93;;;10.20;99.90;;;;;;5050051;28;19967;-77
2023/10/14 06:35:45;;;;;;;5.13;0.90;;;10.20;99.90;;;;;;5053917;28;20048;-77
2023/10/14 06:38:17;;;;;;;6.55;1.38;;;10.20;99.90;;;;;;5059512;28;20049;-77
2023/10/14 06:40:52;;;;;;;4.05;1.10;;;10.20;99.90;;;;;;5062188;28;20044;-77
2023/10/14 06:43:19;;;;;;;5.00;1.10;;;10.20;99.90;;;;;;5029102;28;20036;-78
2023/10/14 06:45:46;;;;;;;3.42;1.05;;;10.20;99.90;;;;;;5055051;28;20045;-77
2023/10/14 06:48:12;;;;;;;4.05;0.90;;;10.20;99.90;;;;;;5035867;28;20041;-77
2023/10/14 06:50:41;;;;;;;5.78;1.15;;;10.20;99.90;;;;;;5052565;28;20045;-78
2023/10/14 06:53:07;;;;;;;2.95;0.93;;;10.30;99.90;;;;;;5034050;28;20037;-77
2023/10/14 06:55:37;;;;;;;5.85;1.35;;;10.30;99.90;;;;;;5058216;28;20114;-78
2023/10/14 06:58:08;;;;;;;2.72;0.80;;;10.30;99.90;;;;;;5057758;28;20045;-78
2023/10/14 07:00:38;;;;;;;5.07;1.15;;;10.30;99.90;;;;;;5064590;28;20044;-77
2023/10/14 07:03:10;;;;;;;3.70;0.90;;;10.40;99.90;;;;;;5040763;28;20965;-78
2023/10/14 07:05:43;;;;;;;3.90;0.93;;;10.40;99.90;;;;;;5051189;28;20051;-79
2023/10/14 07:08:12;;;;;;;5.03;1.25;;;10.40;99.90;;;;;;5037121;28;20056;-77
2023/10/14 07:10:39;;;;;;;5.20;1.17;;;10.50;99.90;;;;;;5039619;28;20079;-78
2023/10/14 07:13:05;;;;;;;4.25;1.10;;;10.50;99.90;;;;;;5045878;28;20036;-79
2023/10/14 07:15:35;;;;;;;3.70;0.93;;;10.50;99.90;;;;;;5050389;28;20039;-77
2023/10/14 07:18:01;;;;;;;3.58;0.93;;;10.60;99.90;;;;;;5060781;28;20044;-77
2023/10/14 07:20:30;;;;;;;4.95;0.90;;;10.70;99.90;;;;;;5056188;28;20049;-77
2023/10/14 07:23:00;;;;;;;4.95;1.27;;;10.80;99.90;;;;;;5063262;28;20052;-78
2023/10/14 07:25:31;;;;;;;5.18;1.00;;;10.90;99.90;;;;;;5054311;28;20044;-77
2023/10/14 07:27:59;;;;;;;8.48;1.45;;;11.00;99.90;;;;;;5061498;28;20036;-78
2023/10/14 07:30:29;;;;;;;5.95;1.45;;;11.10;99.90;;;;;;5036101;28;20144;-78
2023/10/14 07:32:55;;;;;;;5.22;1.15;;;11.20;99.90;;;;;;5037458;28;20056;-82
2023/10/14 07:35:22;;;;;;;5.35;1.25;;;11.30;99.90;;;;;;5056693;28;20554;-77
2023/10/14 07:37:49;;;;;;;5.70;1.73;;;11.50;99.90;;;;;;5057199;28;20048;-77
2023/10/14 07:40:33;;;;;;;6.18;1.30;;;11.70;99.90;;;;;;5054523;28;20045;-77
2023/10/14 07:43:08;;;;;;;6.47;1.40;;;11.90;99.90;;;;;;5044421;28;20091;-77
2023/10/14 07:45:46;;;;;;;7.90;1.70;;;12.00;99.90;;;;;;5046141;28;20045;-77
2023/10/14 07:48:13;;;;;;;8.70;2.15;;;12.10;99.90;;;;;;5067350;28;20049;-77
2023/10/14 07:50:44;;;;;;;6.68;1.70;;;12.10;99.90;;;;;;5047790;28;20415;-77
2023/10/14 07:53:14;;;;;;;5.38;1.20;;;12.10;99.90;;;;;;5050026;28;20143;-78
2023/10/14 07:55:50;;;;;;;4.50;1.13;;;12.20;99.90;;;;;;5042836;28;20041;-77
2023/10/14 07:58:18;;;;;;;5.05;1.40;;;12.20;99.90;;;;;;5051138;28;20415;-77
2023/10/14 08:00:53;;;;;;;4.93;1.48;;;12.20;99.90;;;;;;5052914;28;20064;-77
2023/10/14 08:03:29;;;;;;;7.10;1.70;;;12.20;99.90;;;;;;5035539;28;20079;-77
2023/10/14 08:05:59;;;;;;;5.60;1.20;;;12.20;99.90;;;;;;5052662;28;20454;-78
2023/10/14 08:08:30;;;;;;;6.05;1.20;;;12.20;99.90;;;;;;5049438;28;20123;-77
2023/10/14 08:10:57;;;;;;;4.93;1.25;;;12.20;99.90;;;;;;5063239;28;20080;-77
2023/10/14 08:13:23;;;;;;;5.65;1.80;;;12.30;99.90;;;;;;5047181;28;20033;-77
2023/10/14 08:15:50;;;;;;;6.78;1.45;;;12.30;99.90;;;;;;5032472;28;20032;-77
2023/10/14 08:18:19;;;;;;;7.07;1.20;;;12.20;99.90;;;;;;5032730;28;20044;-77
2023/10/14 08:20:46;;;;;;;5.97;1.20;;;12.20;99.90;;;;;;5050196;28;20049;-80
2023/10/14 08:23:12;;;;;;;4.35;1.13;;;12.20;99.90;;;;;;5065538;28;20060;-76
2023/10/14 08:25:41;;;;;;;6.32;1.33;;;12.30;99.90;;;;;;5049503;28;20037;-77
2023/10/14 08:28:08;;;;;;;13.02;1.85;;;12.30;99.90;;;;;;5063571;28;20040;-76
2023/10/14 08:30:45;;;;;;;8.65;1.90;;;12.30;99.90;;;;;;5049394;28;20519;-74
2023/10/14 08:33:14;;;;;;;;;;;12.30;99.90;;;;;;5051965;28;20476;-75
2023/10/14 08:35:42;;;;;;;7.35;1.65;;;12.40;99.90;;;;;;5049396;28;19917;-75
2023/10/14 08:38:19;;;;;;;6.45;1.75;;;12.40;99.90;;;;;;5050793;28;20041;-75
2023/10/14 08:40:49;;;;;;;3.70;1.00;;;12.50;99.90;;;;;;5048947;28;20053;-75
2023/10/14 08:43:21;;;;;;;3.63;1.20;;;12.50;99.90;;;;;;5032050;28;20168;-75
2023/10/14 08:45:50;;;;;;;7.55;1.40;;;12.60;99.90;;;;;;5052384;28;20056;-85
2023/10/14 08:48:18;;;;;;;6.18;1.75;;;12.60;94.30;;;;;;5058770;28;20099;-74
2023/10/14 08:50:45;;;;;;;8.73;1.85;;;12.80;99.90;;;;;;5061672;28;20369;-70
2023/10/14 08:53:14;;;;;;;8.07;1.38;;;12.80;90.80;;;;;;5064082;28;20166;-70
2023/10/14 08:55:40;;;;;;;15.68;2.70;;;12.90;68.80;;;;;;5051842;28;20041;-70
2023/10/14 08:58:12;;;;;;;;;;;13.00;26.80;;;;;;5054566;28;20484;-72
2023/10/14 09:00:38;;;;;;;6.93;1.30;;;13.10;83.00;;;;;;5044091;28;19927;-72
2023/10/14 09:03:06;;;;;;;161.48;8.73;;;13.10;99.90;;;;;;5069081;28;20036;-79
2023/10/14 09:05:33;;;;;;;8.20;1.50;;;13.20;99.90;;;;;;5047701;28;20063;-86
2023/10/14 09:08:00;;;;;;;6.45;1.45;;;13.10;99.90;;;;;;5049927;28;20701;-86
2023/10/14 09:10:26;;;;;;;8.45;1.50;;;13.50;99.90;;;;;;5031550;28;20037;-88
2023/10/14 09:13:06;;;;;;;6.60;1.27;;;14.00;99.90;;;;;;5052007;28;20113;-87
2023/10/14 09:15:36;;;;;;;5.47;1.20;;;13.00;99.90;;;;;;5049354;28;20503;-89
2023/10/14 09:18:02;;;;;;;10.40;1.67;;;13.50;99.90;;;;;;5041031;28;20488;-84
2023/10/14 09:20:35;;;;;;;;;;;13.30;99.90;;;;;;5055498;28;20131;-85
2023/10/14 09:23:11;;;;;;;7.72;1.25;;;13.30;99.90;;;;;;5058817;28;19936;-80
2023/10/14 09:25:52;;;;;;;9.60;2.13;;;13.20;99.90;;;;;;5064252;28;20113;-84
2023/10/14 09:28:20;;;;;;;7.53;1.70;;;12.70;99.90;;;;;;5074327;28;20032;-82
2023/10/14 09:30:50;;;;;;;7.90;1.60;;;13.20;99.90;;;;;;5074536;28;20054;-82
2023/10/14 09:33:34;;;;;;;5.15;1.33;;;13.20;99.90;;;;;;5081484;28;20119;-79
2023/10/14 09:36:05;;;;;;;10.90;2.28;;;13.20;99.90;;;;;;5065972;28;20036;-71
2023/10/14 09:38:32;;;;;;;57.00;7.78;;;13.00;99.90;;;;;;5069800;28;20056;-79
2023/10/14 09:42:15;;;;;;;9.87;1.87;;;13.00;99.90;;;;;;4791091;27;8644252;-91
2023/10/14 09:44:45;;;;;;;11.02;2.00;;;13.00;62.00;;;;;;5085902;28;20043;-95
2023/10/14 09:47:22;;;;;;;9.20;2.00;;;12.90;28.80;;;;;;5065720;28;20043;-91
2023/10/14 09:49:48;;;;;;;17.70;3.40;;;13.00;1.00;;;;;;5068202;28;20032;-89
2023/10/14 09:52:17;;;;;;;11.95;2.20;;;13.10;1.00;;;;;;5071154;28;20048;-85
2023/10/14 09:54:43;;;;;;;8.30;1.90;;;13.20;1.00;;;;;;5085763;28;20075;-84
2023/10/14 09:57:12;;;;;;;7.50;1.95;;;13.40;1.00;;;;;;5083041;28;20071;-84
2023/10/14 09:59:42;;;;;;;12.55;1.85;;;13.50;99.90;;;;;;5055093;28;20059;-82
2023/10/14 10:02:09;;;;;;;11.32;2.20;;;13.80;99.90;;;;;;5069234;28;20045;-85
2023/10/14 10:04:42;;;;;;;10.30;2.17;;;14.00;99.90;;;;;;5066814;28;20089;-82
2023/10/14 10:07:51;;;;;;;5.30;1.13;;;14.10;99.90;;;;;;5086042;28;20486;-82
2023/10/14 10:10:18;;;;;;;;;;;13.80;99.90;;;;;;5068461;28;20517;-85
2023/10/14 10:12:52;;;;;;;5.13;1.40;;;13.40;99.90;;;;;;5072473;28;20003;-84
2023/10/14 10:15:21;;;;;;;6.80;1.55;;;13.10;99.90;;;;;;5063932;28;20035;-86
2023/10/14 10:18:06;;;;;;;4.72;1.08;;;12.50;1.00;;;;;;5084279;28;20099;-83
2023/10/14 10:20:36;;;;;;;7.80;1.77;;;12.10;1.00;;;;;;5063432;28;20048;-85
2023/10/14 10:23:03;;;;;;;9.27;1.67;;;12.10;84.80;;;;;;5063402;28;20082;-83
2023/10/14 10:25:47;;;;;;;9.52;1.50;;;12.30;99.90;;;;;;5062539;28;20031;-83
2023/10/14 10:28:28;;;;;;;7.00;1.27;;;12.60;99.90;;;;;;5051428;28;20039;-86
2023/10/14 10:31:14;;;;;;;8.65;1.15;;;12.90;99.10;;;;;;5058547;28;20048;-84
2023/10/14 10:33:56;;;;;;;7.05;1.50;;;13.10;27.20;;;;;;5072257;28;20063;-85
2023/10/14 10:36:30;;;;;;;7.82;2.13;;;13.30;1.00;;;;;;5095544;28;20037;-85
2023/10/14 10:39:15;;;;;;;5.20;1.27;;;13.40;99.90;;;;;;5053994;28;20044;-84
2023/10/14 10:41:42;;;;;;;8.65;1.65;;;13.60;99.90;;;;;;5088204;28;20052;-84
2023/10/14 10:44:12;;;;;;;6.30;1.42;;;13.80;99.90;;;;;;5039388;28;20067;-82
2023/10/14 10:46:44;;;;;;;6.15;1.45;;;13.90;99.90;;;;;;5079485;28;20550;-85
2023/10/14 10:49:12;;;;;;;8.60;1.40;;;14.00;99.90;;;;;;5064842;28;20072;-84
2023/10/14 10:52:17;;;;;;;7.57;1.65;;;14.10;99.90;;;;;;5046933;28;20123;-86
2023/10/14 10:54:46;;;;;;;10.38;1.80;;;14.20;1.00;;;;;;5041291;28;20444;-86
2023/10/14 10:57:13;;;;;;;5.03;0.85;;;14.20;1.00;;;;;;5041093;28;20040;-82
2023/10/14 10:59:40;;;;;;;7.20;1.63;;;14.50;99.90;;;;;;5044746;28;20033;-86
2023/10/14 11:02:11;;;;;;;7.18;1.38;;;14.30;99.90;;;;;;5050869;28;20063;-84
2023/10/14 11:04:39;;;;;;;6.45;1.52;;;13.90;64.90;;;;;;5061745;28;20040;-83
2023/10/14 11:07:13;;;;;;;10.38;2.47;;;13.60;99.90;;;;;;5045330;28;20040;-81
2023/10/14 11:09:39;;;;;;;11.07;2.63;;;13.00;99.90;;;;;;5042242;28;20116;-82
2023/10/14 11:12:09;;;;;;;12.10;2.30;;;12.70;1.00;;;;;;5032337;28;20127;-82
2023/10/14 11:14:35;;;;;;;9.25;1.90;;;12.70;9.20;;;;;;5043283;28;20044;-84
2023/10/14 11:17:01;;;;;;;7.55;1.85;;;13.00;1.00;;;;;;5017465;28;20480;-83
2023/10/14 11:19:30;;;;;;;11.98;2.15;;;13.30;99.90;;;;;;5031972;28;20111;-82
2023/10/14 11:21:59;;;;;;;12.20;2.38;;;13.50;99.90;;;;;;5050391;28;20101;-82
2023/10/14 11:24:26;;;;;;;10.93;2.30;;;13.40;40.60;;;;;;5053639;28;20172;-82
2023/10/14 11:26:53;;;;;;;9.40;1.98;;;13.40;7.70;;;;;;5068679;28;20028;-84
2023/10/14 11:29:24;;;;;;;9.00;1.80;;;13.30;1.00;;;;;;5050607;28;20032;-84
2023/10/14 11:31:57;;;;;;;4.80;1.52;;;13.20;92.70;;;;;;5048671;28;20040;-85
2023/10/14 11:34:24;;;;;;;7.32;1.90;;;12.90;99.90;;;;;;5051657;28;20044;-85
2023/10/14 11:36:50;;;;;;;9.75;1.83;;;12.70;76.90;;;;;;5048415;28;20036;-84
2023/10/14 11:39:18;;;;;;;9.23;1.92;;;12.60;99.90;;;;;;5042128;28;20063;-85
2023/10/14 11:41:50;;;;;;;8.02;1.90;;;12.40;99.90;;;;;;5041312;28;20056;-85
2023/10/14 11:44:19;;;;;;;9.85;2.15;;;12.30;99.90;;;;;;5049969;28;20036;-84
2023/10/14 11:46:46;;;;;;;8.75;1.85;;;12.30;99.90;;;;;;5030387;28;20044;-84
2023/10/14 11:49:13;;;;;;;9.05;1.85;;;12.40;99.90;;;;;;5054319;28;20043;-82
2023/10/14 11:51:43;;;;;;;8.80;1.85;;;12.70;99.90;;;;;;5046779;28;20128;-81
2023/10/14 11:54:14;;;;;;;6.40;1.50;;;13.10;99.90;;;;;;5038927;28;20055;-81
2023/10/14 11:56:41;;;;;;;7.05;1.70;;;13.60;99.90;;;;;;5061404;28;20071;-82
2023/10/14 11:59:07;;;;;;;8.13;1.85;;;13.90;99.90;;;;;;5048309;28;20127;-81
2023/10/14 12:01:34;;;;;;;9.63;2.55;;;14.10;83.60;;;;;;5050431;28;20177;-82
2023/10/14 12:04:04;;;;;;;11.77;2.60;;;14.40;1.00;;;;;;5047192;28;20032;-83
2023/10/14 12:06:34;;;;;;;6.78;1.90;;;14.10;99.90;;;;;;5034896;28;20109;-83
2023/10/14 12:09:05;;;;;;;9.85;2.10;;;13.90;99.90;;;;;;5059875;28;20036;-82
2023/10/14 12:11:39;;;;;;;9.57;2.45;;;13.40;99.90;;;;;;5061888;28;20114;-84
2023/10/14 12:14:07;;;;;;;9.73;1.60;;;13.10;99.90;;;;;;5048057;28;20514;-81
2023/10/14 12:16:33;;;;;;;8.10;2.15;;;13.00;99.90;;;;;;5045396;28;20040;-81
2023/10/14 12:18:59;;;;;;;11.32;2.58;;;13.40;1.00;;;;;;5046001;28;20097;-84
2023/10/14 12:21:26;;;;;;;11.65;2.13;;;13.50;99.90;;;;;;5070051;28;20425;-82
2023/10/14 12:23:53;;;;;;;8.63;1.90;;;13.90;99.90;;;;;;5049110;28;20063;-81
2023/10/14 12:26:19;;;;;;;13.10;1.92;;;14.00;99.90;;;;;;5033242;28;20387;-82
2023/10/14 12:28:48;;;;;;;7.22;2.03;;;14.00;90.10;;;;;;5030818;28;20051;-82
2023/10/14 12:31:14;;;;;;;6.07;1.70;;;14.20;1.00;;;;;;5063370;28;20041;-81
2023/10/14 12:33:41;;;;;;;8.20;1.60;;;14.10;99.90;;;;;;5046760;28;20151;-80
2023/10/14 12:36:11;;;;;;;4.65;1.30;;;13.90;99.90;;;;;;5047474;28;20052;-80
2023/10/14 12:38:44;;;;;;;6.22;1.48;;;14.10;99.90;;;;;;5046450;28;20040;-80
2023/10/14 12:41:13;;;;;;;5.95;1.42;;;14.30;44.60;;;;;;5043243;28;20059;-82
2023/10/14 12:43:42;;;;;;;5.50;1.52;;;14.00;99.90;;;;;;5033045;28;20044;-82
2023/10/14 12:46:19;;;;;;;7.30;1.65;;;14.00;1.00;;;;;;5042244;28;20036;-82
2023/10/14 12:48:48;;;;;;;7.10;2.72;;;13.90;1.00;;;;;;5038865;28;20064;-81
2023/10/14 12:51:18;;;;;;;6.90;1.50;;;13.90;1.00;;;;;;5058584;28;21270;-87
2023/10/14 12:53:47;;;;;;;7.28;1.80;;;13.90;1.00;;;;;;5044283;28;20466;-83
2023/10/14 12:56:20;;;;;;;7.60;1.67;;;14.10;54.40;;;;;;5040850;28;20123;-80
2023/10/14 12:58:48;;;;;;;11.45;2.15;;;14.10;95.70;;;;;;5046457;28;20048;-81
2023/10/14 13:01:17;;;;;;;8.70;2.05;;;14.40;99.90;;;;;;5056359;28;20047;-81
2023/10/14 13:03:53;;;;;;;6.03;1.70;;;14.40;92.80;;;;;;5033336;28;20040;-81
2023/10/14 13:06:24;;;;;;;9.60;2.13;;;14.00;99.90;;;;;;5030473;28;20123;-81
2023/10/14 13:08:51;;;;;;;10.48;1.83;;;13.70;99.90;;;;;;5066384;28;20063;-81
2023/10/14 13:11:17;;;;;;;7.43;1.52;;;13.40;99.90;;;;;;5054048;28;20055;-79
2023/10/14 13:13:50;;;;;;;9.10;1.50;;;13.10;99.90;;;;;;5027690;28;20083;-80
2023/10/14 13:16:26;;;;;;;7.68;1.58;;;13.10;1.00;;;;;;5040421;28;20039;-79
2023/10/14 13:18:56;;;;;;;7.35;1.40;;;13.10;77.10;;;;;;5038021;28;20530;-87
2023/10/14 13:21:28;;;;;;;6.38;1.83;;;12.80;99.90;;;;;;5044689;28;20040;-87
2023/10/14 13:23:56;;;;;;;8.82;1.85;;;12.60;1.00;;;;;;5035440;28;20165;-82
2023/10/14 13:26:22;;;;;;;6.53;1.58;;;12.60;97.50;;;;;;5037001;28;20041;-82
2023/10/14 13:28:50;;;;;;;;;;;12.40;99.90;;;;;;5039636;28;20044;-80
2023/10/14 13:31:20;;;;;;;8.13;1.95;;;12.40;99.90;;;;;;5053009;28;20692;-82
2023/10/14 13:33:49;;;;;;;10.68;1.90;;;12.70;99.90;;;;;;5038882;28;20139;-82
2023/10/14 13:36:20;;;;;;;6.88;1.73;;;12.80;99.90;;;;;;5036976;28;20044;-81